Terminal Aerodrome Forecast
Issued by NWS Tallahassee, FL

Current Version | Previous Version | Text Only | Print | Product List | Glossary On
Versions: 1 2 3 4 5 6 7 8 9 10 11 12 13
000
FTUS42 KTAE 211129
TAFTLH
TAF
KTLH 211129Z 2112/2212 VRB04KT P6SM BKN045
     FM211500 13006KT P6SM BKN035
     FM212000 15007KT P6SM -RA BKN025=

USA.gov is the U.S. government's official web portal to all federal, state and local government web resources and services.